02:36
Airports
Links
Donate
Help keep this website running!
PayPal
Bitcoin
METAR
PHJR 230224Z 11008G15KT 10SM -RA SCT023 BKN036 OVC110 23/22 A3000 RMK AO2 P0000 T02330217 $
Current Weather Conditions at PHJR
VFR 02:24:00 23-02-18
Automated station
Altimeter:30.00 hg
Temp:23.3°c 73°f
Dew point:21.7°c 70°f
Wind:8 knots, 9.2 mph, 4 m/s, from 110°
Visibility:10.0 statute miles
11000(OVC) Overcast
3600(BKN) Broken
2300(SCT) Scattered
Past METAR reports
MVFR 01:53:00 23-02-18
Automated station
Altimeter:30.00 hg
Temp:23.9°c 73°f
Dew point:21.7°c 70°f
Wind:6 knots, 6.9 mph, 3 m/s, from 110°
Visibility:9.0 statute miles
3600(OVC) Overcast
2700(BKN) Broken
1800(BKN) Broken
PHJR 230153Z 11006KT 9SM -RA BKN018 BKN027 OVC036 24/22 A3000 RMK AO2 RAE15B38 SLP164 P0000 T02390217 $
MVFR 01:02:00 23-02-18
Automated station
Altimeter:29.99 hg
Temp:24.4°c 75°f
Dew point:21.7°c 70°f
Wind:7 knots, 8.1 mph, 4 m/s, from 120°
Visibility:10.0 statute miles
11000(BKN) Broken
1900(BKN) Broken
PHJR 230102Z 12007G14KT 10SM -RA BKN019 BKN110 24/22 A2999 RMK AO2 P0000 T02440217 $
VFR 00:53:00 23-02-18
Automated station
Altimeter:29.97 hg
Temp:24.4°c 75°f
Dew point:21.1°c 70°f
Wind:9 knots, 10.4 mph, 5 m/s, from 110°
Visibility:10.0 statute miles
11000(BKN) Broken
4200(SCT) Scattered
1900(SCT) Scattered
PHJR 230053Z 11009G19KT 10SM -RA SCT019 SCT042 BKN110 24/21 A2997 RMK AO2 RAB48 SLP156 P0000 T02440211 $
VFR 23:53:00 22-02-18
Automated station
Altimeter:30.00 hg
Temp:25.0°c 77°f
Dew point:21.1°c 70°f
Wind:7 knots, 8.1 mph, 4 m/s, from 110°
Visibility:10.0 statute miles
10000(BKN) Broken
PHJR 222353Z 11007KT 10SM BKN100 25/21 A3000 RMK AO2 SLP165 T02500211 10250 20222 58024 $
VFR 22:53:00 22-02-18
Automated station
Altimeter:30.03 hg
Temp:25.0°c 77°f
Dew point:21.7°c 70°f
Wind:4 knots, 4.6 mph, 2 m/s, from 80°
Visibility:10.0 statute miles
(CLR) Clear
PHJR 222253Z 08004KT 10SM CLR 25/22 A3003 RMK AO2 SLP177 T02500217 $
VFR 21:53:00 22-02-18
Automated station
Altimeter:30.06 hg
Temp:25.0°c 77°f
Dew point:21.7°c 70°f
Wind:6 knots, 6.9 mph, 3 m/s, from 110°
Visibility:10.0 statute miles
2300(FEW) A few
PHJR 222153Z 11006KT 10SM FEW023 25/22 A3006 RMK AO2 SLP185 T02500217 $
TAF
PHJR 230206Z 2302/2324 12008KT P6SM -SHRA BKN020 BKN070 OVC150 FM230300 VRB05KT P6SM -SHRA SCT020 BKN050 OVC150 FM231900 13011KT P6SM VCSH SCT025 BKN070 BKN180
Forecast at PHJR
02:00 23-02-18 to 03:00 23-02-18
-SHRA
Wind:8 Knots from 120°
Visibility:6.21 statute miles
2000BKN Broken
7000BKN Broken
15000OVC Overcast
FM 03:00 23-02-18 to 19:00 23-02-18
-SHRA
Wind:5 Knots from 360°
Visibility:6.21 statute miles
2000SCT Scattered
5000BKN Broken
15000OVC Overcast
FM 19:00 23-02-18 to 00:00 24-02-18
VCSH
Wind:11 Knots from 130°
Visibility:6.21 statute miles
2500SCT Scattered
7000BKN Broken
18000BKN Broken